sensor_id;sensor_type;location;lat;lon;timestamp;P1;durP1;ratioP1;P2;durP2;ratioP2
5904;SDS011;2978;42.012;24.880;2023-01-15T00:01:41;10.87;;;9.30;;
5904;SDS011;2978;42.012;24.880;2023-01-15T00:04:07;15.40;;;10.43;;
5904;SDS011;2978;42.012;24.880;2023-01-15T00:06:37;16.43;;;10.67;;
5904;SDS011;2978;42.012;24.880;2023-01-15T00:09:04;15.27;;;10.87;;
5904;SDS011;2978;42.012;24.880;2023-01-15T00:11:30;12.03;;;9.10;;
5904;SDS011;2978;42.012;24.880;2023-01-15T00:13:55;13.53;;;9.30;;
5904;SDS011;2978;42.012;24.880;2023-01-15T00:16:22;13.27;;;9.00;;
5904;SDS011;2978;42.012;24.880;2023-01-15T00:18:50;10.30;;;8.67;;
5904;SDS011;2978;42.012;24.880;2023-01-15T00:21:23;12.13;;;9.20;;
5904;SDS011;2978;42.012;24.880;2023-01-15T00:23:49;11.90;;;8.33;;
5904;SDS011;2978;42.012;24.880;2023-01-15T00:26:35;11.07;;;7.80;;
5904;SDS011;2978;42.012;24.880;2023-01-15T00:29:19;9.60;;;7.73;;
5904;SDS011;2978;42.012;24.880;2023-01-15T00:31:52;9.77;;;7.97;;
5904;SDS011;2978;42.012;24.880;2023-01-15T00:34:24;8.50;;;6.97;;
5904;SDS011;2978;42.012;24.880;2023-01-15T00:36:50;10.50;;;8.40;;
5904;SDS011;2978;42.012;24.880;2023-01-15T00:39:16;9.00;;;7.53;;
5904;SDS011;2978;42.012;24.880;2023-01-15T00:41:41;11.90;;;7.87;;
5904;SDS011;2978;42.012;24.880;2023-01-15T00:44:07;10.10;;;7.70;;
5904;SDS011;2978;42.012;24.880;2023-01-15T00:46:32;7.47;;;6.77;;
5904;SDS011;2978;42.012;24.880;2023-01-15T00:48:58;8.10;;;6.57;;
5904;SDS011;2978;42.012;24.880;2023-01-15T00:51:23;6.87;;;5.80;;
5904;SDS011;2978;42.012;24.880;2023-01-15T00:53:48;6.20;;;5.60;;
5904;SDS011;2978;42.012;24.880;2023-01-15T00:56:14;7.87;;;5.47;;
5904;SDS011;2978;42.012;24.880;2023-01-15T00:58:39;6.47;;;5.50;;
5904;SDS011;2978;42.012;24.880;2023-01-15T01:01:05;5.03;;;4.53;;
5904;SDS011;2978;42.012;24.880;2023-01-15T01:03:30;5.80;;;4.93;;
5904;SDS011;2978;42.012;24.880;2023-01-15T01:06:00;6.47;;;5.87;;
5904;SDS011;2978;42.012;24.880;2023-01-15T01:08:26;12.50;;;5.73;;
5904;SDS011;2978;42.012;24.880;2023-01-15T01:10:59;7.87;;;5.73;;
5904;SDS011;2978;42.012;24.880;2023-01-15T01:13:29;6.43;;;5.43;;
5904;SDS011;2978;42.012;24.880;2023-01-15T01:15:54;6.93;;;6.00;;
5904;SDS011;2978;42.012;24.880;2023-01-15T01:18:20;8.60;;;6.07;;
5904;SDS011;2978;42.012;24.880;2023-01-15T01:20:45;4.97;;;4.20;;
5904;SDS011;2978;42.012;24.880;2023-01-15T01:23:11;8.00;;;4.43;;
5904;SDS011;2978;42.012;24.880;2023-01-15T01:25:36;4.83;;;4.33;;
5904;SDS011;2978;42.012;24.880;2023-01-15T01:28:02;4.60;;;4.00;;
5904;SDS011;2978;42.012;24.880;2023-01-15T01:30:27;4.87;;;4.00;;
5904;SDS011;2978;42.012;24.880;2023-01-15T01:32:52;3.90;;;3.30;;
5904;SDS011;2978;42.012;24.880;2023-01-15T01:35:18;4.50;;;3.77;;
5904;SDS011;2978;42.012;24.880;2023-01-15T01:37:47;6.17;;;3.43;;
5904;SDS011;2978;42.012;24.880;2023-01-15T01:40:14;4.93;;;4.40;;
5904;SDS011;2978;42.012;24.880;2023-01-15T01:42:40;8.23;;;3.70;;
5904;SDS011;2978;42.012;24.880;2023-01-15T01:45:07;4.00;;;3.60;;
5904;SDS011;2978;42.012;24.880;2023-01-15T01:47:54;3.90;;;3.50;;
5904;SDS011;2978;42.012;24.880;2023-01-15T01:50:23;6.60;;;4.63;;
5904;SDS011;2978;42.012;24.880;2023-01-15T01:52:51;4.37;;;3.97;;
5904;SDS011;2978;42.012;24.880;2023-01-15T01:55:21;5.27;;;4.73;;
5904;SDS011;2978;42.012;24.880;2023-01-15T01:57:48;4.80;;;4.30;;
5904;SDS011;2978;42.012;24.880;2023-01-15T02:00:15;4.83;;;4.43;;
5904;SDS011;2978;42.012;24.880;2023-01-15T02:02:45;4.73;;;3.53;;
5904;SDS011;2978;42.012;24.880;2023-01-15T02:05:17;4.87;;;4.13;;
5904;SDS011;2978;42.012;24.880;2023-01-15T02:07:51;6.10;;;4.40;;
5904;SDS011;2978;42.012;24.880;2023-01-15T02:10:16;4.60;;;3.47;;
5904;SDS011;2978;42.012;24.880;2023-01-15T02:12:44;3.80;;;3.40;;
5904;SDS011;2978;42.012;24.880;2023-01-15T02:15:18;3.20;;;2.90;;
5904;SDS011;2978;42.012;24.880;2023-01-15T02:17:55;2.80;;;2.50;;
5904;SDS011;2978;42.012;24.880;2023-01-15T02:20:31;3.97;;;3.00;;
5904;SDS011;2978;42.012;24.880;2023-01-15T02:29:07;3.17;;;2.90;;
5904;SDS011;2978;42.012;24.880;2023-01-15T02:31:38;3.93;;;2.77;;
5904;SDS011;2978;42.012;24.880;2023-01-15T02:34:18;3.90;;;3.30;;
5904;SDS011;2978;42.012;24.880;2023-01-15T02:36:55;5.17;;;3.97;;
5904;SDS011;2978;42.012;24.880;2023-01-15T02:39:26;3.70;;;3.40;;
5904;SDS011;2978;42.012;24.880;2023-01-15T02:41:54;5.80;;;4.30;;
5904;SDS011;2978;42.012;24.880;2023-01-15T02:44:21;4.10;;;3.70;;
5904;SDS011;2978;42.012;24.880;2023-01-15T02:46:50;3.87;;;3.57;;
5904;SDS011;2978;42.012;24.880;2023-01-15T02:49:19;4.37;;;3.93;;
5904;SDS011;2978;42.012;24.880;2023-01-15T02:51:51;5.50;;;3.67;;
5904;SDS011;2978;42.012;24.880;2023-01-15T02:54:23;3.50;;;3.20;;
5904;SDS011;2978;42.012;24.880;2023-01-15T02:56:53;5.63;;;4.20;;
5904;SDS011;2978;42.012;24.880;2023-01-15T02:59:29;4.70;;;4.20;;
5904;SDS011;2978;42.012;24.880;2023-01-15T03:02:02;5.23;;;4.50;;
5904;SDS011;2978;42.012;24.880;2023-01-15T03:07:48;4.83;;;4.40;;
5904;SDS011;2978;42.012;24.880;2023-01-15T03:10:17;4.27;;;3.70;;
5904;SDS011;2978;42.012;24.880;2023-01-15T03:12:47;3.73;;;3.40;;
5904;SDS011;2978;42.012;24.880;2023-01-15T03:18:43;3.90;;;3.50;;
5904;SDS011;2978;42.012;24.880;2023-01-15T03:21:16;4.13;;;3.73;;
5904;SDS011;2978;42.012;24.880;2023-01-15T03:23:49;4.40;;;4.00;;
5904;SDS011;2978;42.012;24.880;2023-01-15T03:26:18;6.00;;;5.40;;
5904;SDS011;2978;42.012;24.880;2023-01-15T03:28:44;7.80;;;5.73;;
5904;SDS011;2978;42.012;24.880;2023-01-15T03:31:12;9.73;;;8.00;;
5904;SDS011;2978;42.012;24.880;2023-01-15T03:33:39;12.30;;;11.10;;
5904;SDS011;2978;42.012;24.880;2023-01-15T03:36:05;31.83;;;22.13;;
5904;SDS011;2978;42.012;24.880;2023-01-15T03:38:32;10.17;;;7.63;;
5904;SDS011;2978;42.012;24.880;2023-01-15T03:41:19;5.10;;;4.60;;
5904;SDS011;2978;42.012;24.880;2023-01-15T03:57:26;7.90;;;6.50;;
5904;SDS011;2978;42.012;24.880;2023-01-15T03:59:58;6.97;;;6.27;;
5904;SDS011;2978;42.012;24.880;2023-01-15T04:02:27;6.70;;;5.73;;
5904;SDS011;2978;42.012;24.880;2023-01-15T04:04:54;6.23;;;5.50;;
5904;SDS011;2978;42.012;24.880;2023-01-15T04:07:22;7.23;;;6.23;;
5904;SDS011;2978;42.012;24.880;2023-01-15T04:09:48;6.70;;;5.63;;
5904;SDS011;2978;42.012;24.880;2023-01-15T04:12:14;7.83;;;5.70;;
5904;SDS011;2978;42.012;24.880;2023-01-15T04:14:39;7.03;;;5.80;;
5904;SDS011;2978;42.012;24.880;2023-01-15T04:17:05;6.03;;;5.40;;
5904;SDS011;2978;42.012;24.880;2023-01-15T04:19:30;7.80;;;6.40;;
5904;SDS011;2978;42.012;24.880;2023-01-15T04:21:56;5.80;;;5.10;;
5904;SDS011;2978;42.012;24.880;2023-01-15T04:24:22;6.77;;;5.37;;
5904;SDS011;2978;42.012;24.880;2023-01-15T04:26:47;5.60;;;5.10;;
5904;SDS011;2978;42.012;24.880;2023-01-15T04:29:12;6.77;;;5.80;;
5904;SDS011;2978;42.012;24.880;2023-01-15T04:31:38;7.40;;;5.00;;
5904;SDS011;2978;42.012;24.880;2023-01-15T04:34:03;6.80;;;5.60;;
5904;SDS011;2978;42.012;24.880;2023-01-15T04:36:29;7.37;;;6.57;;
5904;SDS011;2978;42.012;24.880;2023-01-15T04:38:55;7.67;;;6.20;;
5904;SDS011;2978;42.012;24.880;2023-01-15T04:41:22;9.27;;;7.77;;
5904;SDS011;2978;42.012;24.880;2023-01-15T04:44:05;14.20;;;10.70;;
5904;SDS011;2978;42.012;24.880;2023-01-15T04:46:31;9.27;;;7.80;;
5904;SDS011;2978;42.012;24.880;2023-01-15T04:49:00;9.20;;;7.87;;
5904;SDS011;2978;42.012;24.880;2023-01-15T04:51:25;6.53;;;5.40;;
5904;SDS011;2978;42.012;24.880;2023-01-15T04:53:51;6.53;;;5.83;;
5904;SDS011;2978;42.012;24.880;2023-01-15T04:56:16;8.53;;;7.37;;
5904;SDS011;2978;42.012;24.880;2023-01-15T04:58:42;12.00;;;7.57;;
5904;SDS011;2978;42.012;24.880;2023-01-15T05:01:11;10.93;;;8.70;;
5904;SDS011;2978;42.012;24.880;2023-01-15T05:03:37;13.10;;;9.27;;
5904;SDS011;2978;42.012;24.880;2023-01-15T05:06:03;10.63;;;9.17;;
5904;SDS011;2978;42.012;24.880;2023-01-15T05:08:28;11.87;;;9.27;;
5904;SDS011;2978;42.012;24.880;2023-01-15T05:10:54;12.40;;;10.10;;
5904;SDS011;2978;42.012;24.880;2023-01-15T05:13:19;15.50;;;10.70;;
5904;SDS011;2978;42.012;24.880;2023-01-15T05:15:45;17.93;;;11.10;;
5904;SDS011;2978;42.012;24.880;2023-01-15T05:18:12;13.60;;;10.50;;
5904;SDS011;2978;42.012;24.880;2023-01-15T05:20:41;13.60;;;10.20;;
5904;SDS011;2978;42.012;24.880;2023-01-15T05:23:06;15.40;;;10.43;;
5904;SDS011;2978;42.012;24.880;2023-01-15T05:25:32;20.03;;;12.37;;
5904;SDS011;2978;42.012;24.880;2023-01-15T05:28:00;16.00;;;11.00;;
5904;SDS011;2978;42.012;24.880;2023-01-15T05:30:25;15.00;;;10.57;;
5904;SDS011;2978;42.012;24.880;2023-01-15T05:32:50;16.43;;;10.80;;
5904;SDS011;2978;42.012;24.880;2023-01-15T05:35:16;18.80;;;11.00;;
5904;SDS011;2978;42.012;24.880;2023-01-15T05:37:41;17.30;;;11.73;;
5904;SDS011;2978;42.012;24.880;2023-01-15T05:40:07;15.73;;;11.20;;
5904;SDS011;2978;42.012;24.880;2023-01-15T05:42:33;8.00;;;6.87;;
5904;SDS011;2978;42.012;24.880;2023-01-15T05:44:58;16.30;;;11.10;;
5904;SDS011;2978;42.012;24.880;2023-01-15T05:47:23;14.20;;;10.87;;
5904;SDS011;2978;42.012;24.880;2023-01-15T05:49:49;17.60;;;10.80;;
5904;SDS011;2978;42.012;24.880;2023-01-15T05:52:14;18.57;;;12.67;;
5904;SDS011;2978;42.012;24.880;2023-01-15T05:54:40;23.50;;;13.13;;
5904;SDS011;2978;42.012;24.880;2023-01-15T05:57:05;16.20;;;11.33;;
5904;SDS011;2978;42.012;24.880;2023-01-15T05:59:31;17.70;;;11.57;;
5904;SDS011;2978;42.012;24.880;2023-01-15T06:01:57;14.73;;;10.70;;
5904;SDS011;2978;42.012;24.880;2023-01-15T06:04:23;13.67;;;10.47;;
5904;SDS011;2978;42.012;24.880;2023-01-15T06:06:50;14.03;;;10.63;;
5904;SDS011;2978;42.012;24.880;2023-01-15T06:09:17;17.77;;;12.00;;
5904;SDS011;2978;42.012;24.880;2023-01-15T06:11:43;27.50;;;15.47;;
5904;SDS011;2978;42.012;24.880;2023-01-15T06:14:09;19.40;;;12.97;;
5904;SDS011;2978;42.012;24.880;2023-01-15T06:16:36;20.63;;;13.00;;
5904;SDS011;2978;42.012;24.880;2023-01-15T06:19:03;15.70;;;11.70;;
5904;SDS011;2978;42.012;24.880;2023-01-15T06:21:30;18.80;;;13.40;;
5904;SDS011;2978;42.012;24.880;2023-01-15T06:23:57;28.40;;;19.40;;
5904;SDS011;2978;42.012;24.880;2023-01-15T06:26:23;30.30;;;23.10;;
5904;SDS011;2978;42.012;24.880;2023-01-15T06:28:49;40.07;;;28.53;;
5904;SDS011;2978;42.012;24.880;2023-01-15T06:31:16;26.00;;;20.73;;
5904;SDS011;2978;42.012;24.880;2023-01-15T06:33:44;24.27;;;20.50;;
5904;SDS011;2978;42.012;24.880;2023-01-15T06:36:19;19.77;;;16.87;;
5904;SDS011;2978;42.012;24.880;2023-01-15T06:38:48;25.03;;;19.70;;
5904;SDS011;2978;42.012;24.880;2023-01-15T06:41:14;21.43;;;15.37;;
5904;SDS011;2978;42.012;24.880;2023-01-15T06:44:03;33.80;;;22.43;;
5904;SDS011;2978;42.012;24.880;2023-01-15T06:46:47;27.50;;;19.40;;
5904;SDS011;2978;42.012;24.880;2023-01-15T06:49:33;23.27;;;16.77;;
5904;SDS011;2978;42.012;24.880;2023-01-15T06:51:59;21.70;;;15.80;;
5904;SDS011;2978;42.012;24.880;2023-01-15T06:54:25;23.10;;;14.03;;
5904;SDS011;2978;42.012;24.880;2023-01-15T06:56:51;18.87;;;13.53;;
5904;SDS011;2978;42.012;24.880;2023-01-15T06:59:17;21.87;;;15.47;;
5904;SDS011;2978;42.012;24.880;2023-01-15T07:01:43;34.90;;;23.27;;
5904;SDS011;2978;42.012;24.880;2023-01-15T07:04:09;33.00;;;22.47;;
5904;SDS011;2978;42.012;24.880;2023-01-15T07:06:34;22.23;;;13.93;;
5904;SDS011;2978;42.012;24.880;2023-01-15T07:08:59;21.30;;;15.43;;
5904;SDS011;2978;42.012;24.880;2023-01-15T07:14:46;29.50;;;17.80;;
5904;SDS011;2978;42.012;24.880;2023-01-15T07:17:12;24.50;;;18.13;;
5904;SDS011;2978;42.012;24.880;2023-01-15T07:19:38;24.50;;;17.00;;
5904;SDS011;2978;42.012;24.880;2023-01-15T07:22:04;26.50;;;16.57;;
5904;SDS011;2978;42.012;24.880;2023-01-15T07:24:31;29.13;;;20.07;;
5904;SDS011;2978;42.012;24.880;2023-01-15T07:26:56;26.40;;;19.20;;
5904;SDS011;2978;42.012;24.880;2023-01-15T07:29:22;22.80;;;18.17;;
5904;SDS011;2978;42.012;24.880;2023-01-15T07:31:48;28.47;;;21.00;;
5904;SDS011;2978;42.012;24.880;2023-01-15T07:34:14;30.27;;;20.90;;
5904;SDS011;2978;42.012;24.880;2023-01-15T07:36:39;18.60;;;11.57;;
5904;SDS011;2978;42.012;24.880;2023-01-15T07:39:06;15.47;;;11.47;;
5904;SDS011;2978;42.012;24.880;2023-01-15T07:41:32;12.90;;;10.50;;
5904;SDS011;2978;42.012;24.880;2023-01-15T07:44:16;17.97;;;10.80;;
5904;SDS011;2978;42.012;24.880;2023-01-15T07:47:00;21.97;;;16.40;;
5904;SDS011;2978;42.012;24.880;2023-01-15T07:49:45;24.43;;;14.00;;
5904;SDS011;2978;42.012;24.880;2023-01-15T07:52:13;15.90;;;10.43;;
5904;SDS011;2978;42.012;24.880;2023-01-15T07:54:43;14.10;;;8.97;;
5904;SDS011;2978;42.012;24.880;2023-01-15T07:57:10;16.83;;;11.90;;
5904;SDS011;2978;42.012;24.880;2023-01-15T07:59:37;16.87;;;10.73;;
5904;SDS011;2978;42.012;24.880;2023-01-15T08:02:03;14.60;;;9.03;;
5904;SDS011;2978;42.012;24.880;2023-01-15T08:04:29;12.67;;;9.17;;
5904;SDS011;2978;42.012;24.880;2023-01-15T08:06:54;12.90;;;8.20;;
5904;SDS011;2978;42.012;24.880;2023-01-15T08:09:19;13.23;;;9.40;;
5904;SDS011;2978;42.012;24.880;2023-01-15T08:11:45;15.73;;;10.40;;
5904;SDS011;2978;42.012;24.880;2023-01-15T08:14:29;17.20;;;12.37;;
5904;SDS011;2978;42.012;24.880;2023-01-15T08:17:13;17.20;;;12.77;;
5904;SDS011;2978;42.012;24.880;2023-01-15T08:19:38;13.90;;;10.03;;
5904;SDS011;2978;42.012;24.880;2023-01-15T08:22:04;14.87;;;10.70;;
5904;SDS011;2978;42.012;24.880;2023-01-15T08:24:29;14.93;;;12.20;;
5904;SDS011;2978;42.012;24.880;2023-01-15T08:26:54;14.53;;;10.73;;
5904;SDS011;2978;42.012;24.880;2023-01-15T08:29:20;15.57;;;12.03;;
5904;SDS011;2978;42.012;24.880;2023-01-15T08:31:46;30.90;;;21.07;;
5904;SDS011;2978;42.012;24.880;2023-01-15T08:34:11;19.50;;;13.87;;
5904;SDS011;2978;42.012;24.880;2023-01-15T08:36:37;11.47;;;9.17;;
5904;SDS011;2978;42.012;24.880;2023-01-15T08:39:03;12.40;;;8.80;;
5904;SDS011;2978;42.012;24.880;2023-01-15T08:41:29;13.93;;;10.17;;
5904;SDS011;2978;42.012;24.880;2023-01-15T08:43:55;15.33;;;9.97;;
5904;SDS011;2978;42.012;24.880;2023-01-15T08:46:20;16.87;;;11.73;;
5904;SDS011;2978;42.012;24.880;2023-01-15T08:48:46;16.80;;;11.50;;
5904;SDS011;2978;42.012;24.880;2023-01-15T08:51:12;23.17;;;12.57;;
5904;SDS011;2978;42.012;24.880;2023-01-15T08:53:38;13.07;;;9.37;;
5904;SDS011;2978;42.012;24.880;2023-01-15T08:56:03;13.17;;;9.80;;
5904;SDS011;2978;42.012;24.880;2023-01-15T08:58:32;11.13;;;7.17;;
5904;SDS011;2978;42.012;24.880;2023-01-15T09:01:04;9.73;;;7.63;;
5904;SDS011;2978;42.012;24.880;2023-01-15T09:03:31;10.37;;;7.60;;
5904;SDS011;2978;42.012;24.880;2023-01-15T09:05:57;7.50;;;6.30;;
5904;SDS011;2978;42.012;24.880;2023-01-15T09:08:23;5.83;;;5.23;;
5904;SDS011;2978;42.012;24.880;2023-01-15T09:10:49;8.60;;;7.30;;
5904;SDS011;2978;42.012;24.880;2023-01-15T09:13:14;13.27;;;9.60;;
5904;SDS011;2978;42.012;24.880;2023-01-15T09:15:40;12.10;;;9.10;;
5904;SDS011;2978;42.012;24.880;2023-01-15T09:18:05;12.23;;;9.27;;
5904;SDS011;2978;42.012;24.880;2023-01-15T09:20:31;19.73;;;16.50;;
5904;SDS011;2978;42.012;24.880;2023-01-15T09:22:56;14.00;;;12.50;;
5904;SDS011;2978;42.012;24.880;2023-01-15T09:25:22;13.03;;;10.03;;
5904;SDS011;2978;42.012;24.880;2023-01-15T09:27:48;9.17;;;7.50;;
5904;SDS011;2978;42.012;24.880;2023-01-15T09:30:18;19.13;;;16.87;;
5904;SDS011;2978;42.012;24.880;2023-01-15T09:32:45;11.60;;;9.03;;
5904;SDS011;2978;42.012;24.880;2023-01-15T09:35:10;8.63;;;7.60;;
5904;SDS011;2978;42.012;24.880;2023-01-15T09:37:36;12.93;;;8.50;;
5904;SDS011;2978;42.012;24.880;2023-01-15T09:40:02;17.37;;;8.57;;
5904;SDS011;2978;42.012;24.880;2023-01-15T09:45:07;14.90;;;9.77;;
5904;SDS011;2978;42.012;24.880;2023-01-15T09:47:40;6.30;;;4.50;;
5904;SDS011;2978;42.012;24.880;2023-01-15T09:50:32;8.70;;;4.93;;
5904;SDS011;2978;42.012;24.880;2023-01-15T09:56:01;12.90;;;8.87;;
5904;SDS011;2978;42.012;24.880;2023-01-15T09:58:36;16.57;;;7.37;;
5904;SDS011;2978;42.012;24.880;2023-01-15T10:01:04;19.33;;;12.30;;
5904;SDS011;2978;42.012;24.880;2023-01-15T10:03:44;14.27;;;9.33;;
5904;SDS011;2978;42.012;24.880;2023-01-15T10:06:12;10.40;;;8.10;;
5904;SDS011;2978;42.012;24.880;2023-01-15T10:08:48;12.47;;;9.10;;
5904;SDS011;2978;42.012;24.880;2023-01-15T10:13:42;7.80;;;6.17;;
5904;SDS011;2978;42.012;24.880;2023-01-15T10:16:11;10.30;;;7.90;;
5904;SDS011;2978;42.012;24.880;2023-01-15T10:18:42;17.23;;;10.10;;
5904;SDS011;2978;42.012;24.880;2023-01-15T10:21:29;17.50;;;8.80;;
5904;SDS011;2978;42.012;24.880;2023-01-15T10:24:38;16.40;;;8.27;;
5904;SDS011;2978;42.012;24.880;2023-01-15T10:27:17;18.43;;;11.33;;
5904;SDS011;2978;42.012;24.880;2023-01-15T10:29:48;10.13;;;6.90;;
5904;SDS011;2978;42.012;24.880;2023-01-15T10:38:13;21.20;;;11.07;;
5904;SDS011;2978;42.012;24.880;2023-01-15T10:43:41;19.87;;;11.70;;
5904;SDS011;2978;42.012;24.880;2023-01-15T10:46:12;13.37;;;10.17;;
5904;SDS011;2978;42.012;24.880;2023-01-15T10:48:46;16.43;;;13.70;;
5904;SDS011;2978;42.012;24.880;2023-01-15T10:51:41;17.30;;;13.03;;
5904;SDS011;2978;42.012;24.880;2023-01-15T10:54:20;18.13;;;12.20;;
5904;SDS011;2978;42.012;24.880;2023-01-15T10:56:59;14.20;;;10.60;;
5904;SDS011;2978;42.012;24.880;2023-01-15T10:59:48;14.37;;;11.20;;
5904;SDS011;2978;42.012;24.880;2023-01-15T11:04:49;16.40;;;11.90;;
5904;SDS011;2978;42.012;24.880;2023-01-15T11:07:15;19.93;;;13.00;;
5904;SDS011;2978;42.012;24.880;2023-01-15T11:09:41;15.37;;;10.20;;
5904;SDS011;2978;42.012;24.880;2023-01-15T11:12:21;15.10;;;9.60;;
5904;SDS011;2978;42.012;24.880;2023-01-15T11:14:49;13.10;;;10.30;;
5904;SDS011;2978;42.012;24.880;2023-01-15T11:17:37;14.80;;;10.07;;
5904;SDS011;2978;42.012;24.880;2023-01-15T11:20:27;24.03;;;12.90;;
5904;SDS011;2978;42.012;24.880;2023-01-15T11:22:55;32.60;;;12.50;;
5904;SDS011;2978;42.012;24.880;2023-01-15T11:25:30;20.23;;;9.07;;
5904;SDS011;2978;42.012;24.880;2023-01-15T11:27:57;19.53;;;11.27;;
5904;SDS011;2978;42.012;24.880;2023-01-15T11:32:54;16.70;;;9.13;;
5904;SDS011;2978;42.012;24.880;2023-01-15T11:35:21;29.77;;;10.50;;
5904;SDS011;2978;42.012;24.880;2023-01-15T11:37:47;13.93;;;7.87;;
5904;SDS011;2978;42.012;24.880;2023-01-15T11:40:15;27.50;;;12.37;;
5904;SDS011;2978;42.012;24.880;2023-01-15T11:42:48;15.30;;;8.80;;
5904;SDS011;2978;42.012;24.880;2023-01-15T11:45:33;12.80;;;9.43;;
5904;SDS011;2978;42.012;24.880;2023-01-15T11:48:34;37.50;;;10.93;;
5904;SDS011;2978;42.012;24.880;2023-01-15T11:51:26;15.00;;;8.90;;
5904;SDS011;2978;42.012;24.880;2023-01-15T11:53:53;26.87;;;8.90;;
5904;SDS011;2978;42.012;24.880;2023-01-15T11:56:23;19.23;;;12.23;;
5904;SDS011;2978;42.012;24.880;2023-01-15T11:58:53;13.90;;;8.90;;
5904;SDS011;2978;42.012;24.880;2023-01-15T12:01:24;18.50;;;11.30;;
5904;SDS011;2978;42.012;24.880;2023-01-15T12:03:55;26.53;;;9.37;;
5904;SDS011;2978;42.012;24.880;2023-01-15T12:06:22;13.20;;;10.40;;
5904;SDS011;2978;42.012;24.880;2023-01-15T12:17:08;27.83;;;15.50;;
5904;SDS011;2978;42.012;24.880;2023-01-15T12:25:17;19.57;;;9.57;;
5904;SDS011;2978;42.012;24.880;2023-01-15T12:27:56;15.90;;;8.37;;
5904;SDS011;2978;42.012;24.880;2023-01-15T12:33:06;13.00;;;8.90;;
5904;SDS011;2978;42.012;24.880;2023-01-15T12:41:29;15.13;;;9.20;;
5904;SDS011;2978;42.012;24.880;2023-01-15T12:44:18;25.50;;;11.23;;
5904;SDS011;2978;42.012;24.880;2023-01-15T12:47:28;14.07;;;9.50;;
5904;SDS011;2978;42.012;24.880;2023-01-15T12:52:44;24.23;;;10.90;;
5904;SDS011;2978;42.012;24.880;2023-01-15T12:55:18;18.00;;;10.20;;
5904;SDS011;2978;42.012;24.880;2023-01-15T12:57:48;19.97;;;9.40;;
5904;SDS011;2978;42.012;24.880;2023-01-15T13:00:23;23.53;;;8.50;;
5904;SDS011;2978;42.012;24.880;2023-01-15T13:05:27;22.60;;;9.50;;
5904;SDS011;2978;42.012;24.880;2023-01-15T13:08:12;31.93;;;12.53;;
5904;SDS011;2978;42.012;24.880;2023-01-15T13:10:47;25.80;;;13.07;;
5904;SDS011;2978;42.012;24.880;2023-01-15T13:13:15;26.13;;;13.73;;
5904;SDS011;2978;42.012;24.880;2023-01-15T13:15:50;29.97;;;17.30;;
5904;SDS011;2978;42.012;24.880;2023-01-15T13:18:33;28.17;;;15.03;;
5904;SDS011;2978;42.012;24.880;2023-01-15T13:21:15;41.80;;;12.07;;
5904;SDS011;2978;42.012;24.880;2023-01-15T13:29:42;33.93;;;17.83;;
5904;SDS011;2978;42.012;24.880;2023-01-15T13:34:53;22.60;;;14.67;;
5904;SDS011;2978;42.012;24.880;2023-01-15T13:37:22;22.90;;;14.33;;
5904;SDS011;2978;42.012;24.880;2023-01-15T13:42:36;24.50;;;11.13;;
5904;SDS011;2978;42.012;24.880;2023-01-15T13:47:38;33.97;;;14.27;;
5904;SDS011;2978;42.012;24.880;2023-01-15T13:50:22;31.60;;;17.17;;
5904;SDS011;2978;42.012;24.880;2023-01-15T13:53:27;28.17;;;14.30;;
5904;SDS011;2978;42.012;24.880;2023-01-15T13:55:56;45.70;;;26.33;;
5904;SDS011;2978;42.012;24.880;2023-01-15T13:58:39;24.90;;;15.70;;
5904;SDS011;2978;42.012;24.880;2023-01-15T14:01:30;18.87;;;12.40;;
5904;SDS011;2978;42.012;24.880;2023-01-15T14:06:45;33.00;;;18.03;;
5904;SDS011;2978;42.012;24.880;2023-01-15T14:09:12;37.60;;;16.27;;
5904;SDS011;2978;42.012;24.880;2023-01-15T14:31:32;28.70;;;15.80;;
5904;SDS011;2978;42.012;24.880;2023-01-15T14:34:24;30.07;;;16.53;;
5904;SDS011;2978;42.012;24.880;2023-01-15T14:39:40;32.53;;;16.33;;
5904;SDS011;2978;42.012;24.880;2023-01-15T14:42:16;21.40;;;14.00;;
5904;SDS011;2978;42.012;24.880;2023-01-15T14:47:53;50.40;;;16.63;;
5904;SDS011;2978;42.012;24.880;2023-01-15T14:58:58;51.87;;;30.03;;
5904;SDS011;2978;42.012;24.880;2023-01-15T15:01:35;26.40;;;13.97;;
5904;SDS011;2978;42.012;24.880;2023-01-15T15:06:42;25.03;;;13.30;;
5904;SDS011;2978;42.012;24.880;2023-01-15T15:09:11;27.33;;;19.60;;
5904;SDS011;2978;42.012;24.880;2023-01-15T15:11:40;35.43;;;20.50;;
5904;SDS011;2978;42.012;24.880;2023-01-15T15:14:28;23.10;;;16.30;;
5904;SDS011;2978;42.012;24.880;2023-01-15T15:16:57;28.80;;;17.00;;
5904;SDS011;2978;42.012;24.880;2023-01-15T15:19:35;32.40;;;17.47;;
5904;SDS011;2978;42.012;24.880;2023-01-15T15:22:05;25.27;;;16.40;;
5904;SDS011;2978;42.012;24.880;2023-01-15T15:24:35;30.53;;;20.30;;
5904;SDS011;2978;42.012;24.880;2023-01-15T15:27:15;37.20;;;23.20;;
5904;SDS011;2978;42.012;24.880;2023-01-15T15:29:42;33.33;;;20.70;;
5904;SDS011;2978;42.012;24.880;2023-01-15T15:32:09;25.73;;;18.30;;
5904;SDS011;2978;42.012;24.880;2023-01-15T15:34:48;20.43;;;11.90;;
5904;SDS011;2978;42.012;24.880;2023-01-15T15:40:01;31.83;;;17.50;;
5904;SDS011;2978;42.012;24.880;2023-01-15T15:42:37;23.80;;;15.93;;
5904;SDS011;2978;42.012;24.880;2023-01-15T15:45:28;20.40;;;14.10;;
5904;SDS011;2978;42.012;24.880;2023-01-15T15:48:17;18.60;;;12.43;;
5904;SDS011;2978;42.012;24.880;2023-01-15T15:51:05;23.07;;;13.80;;
5904;SDS011;2978;42.012;24.880;2023-01-15T15:53:47;20.10;;;13.70;;
5904;SDS011;2978;42.012;24.880;2023-01-15T15:56:12;21.80;;;14.30;;
5904;SDS011;2978;42.012;24.880;2023-01-15T15:58:39;20.57;;;13.27;;
5904;SDS011;2978;42.012;24.880;2023-01-15T16:01:05;21.13;;;14.10;;
5904;SDS011;2978;42.012;24.880;2023-01-15T16:03:35;17.27;;;11.43;;
5904;SDS011;2978;42.012;24.880;2023-01-15T16:06:04;19.00;;;12.03;;
5904;SDS011;2978;42.012;24.880;2023-01-15T16:08:32;18.63;;;11.50;;
5904;SDS011;2978;42.012;24.880;2023-01-15T16:11:01;20.20;;;12.80;;
5904;SDS011;2978;42.012;24.880;2023-01-15T16:13:31;25.87;;;15.20;;
5904;SDS011;2978;42.012;24.880;2023-01-15T16:16:04;21.97;;;12.03;;
5904;SDS011;2978;42.012;24.880;2023-01-15T16:18:35;21.13;;;14.07;;
5904;SDS011;2978;42.012;24.880;2023-01-15T16:21:05;16.60;;;10.80;;
5904;SDS011;2978;42.012;24.880;2023-01-15T16:23:32;13.53;;;9.23;;
5904;SDS011;2978;42.012;24.880;2023-01-15T16:28:34;20.50;;;12.07;;
5904;SDS011;2978;42.012;24.880;2023-01-15T16:31:07;19.93;;;10.83;;
5904;SDS011;2978;42.012;24.880;2023-01-15T16:33:33;22.23;;;11.30;;
5904;SDS011;2978;42.012;24.880;2023-01-15T16:36:01;17.70;;;11.87;;
5904;SDS011;2978;42.012;24.880;2023-01-15T16:38:32;18.90;;;11.07;;
5904;SDS011;2978;42.012;24.880;2023-01-15T16:41:00;15.03;;;9.90;;
5904;SDS011;2978;42.012;24.880;2023-01-15T16:43:26;13.87;;;9.00;;
5904;SDS011;2978;42.012;24.880;2023-01-15T16:48:33;19.57;;;11.20;;
5904;SDS011;2978;42.012;24.880;2023-01-15T16:51:32;15.87;;;10.50;;
5904;SDS011;2978;42.012;24.880;2023-01-15T16:53:59;9.30;;;7.40;;
5904;SDS011;2978;42.012;24.880;2023-01-15T17:02:03;19.43;;;10.40;;
5904;SDS011;2978;42.012;24.880;2023-01-15T17:04:37;11.43;;;9.30;;
5904;SDS011;2978;42.012;24.880;2023-01-15T17:07:26;12.83;;;10.30;;
5904;SDS011;2978;42.012;24.880;2023-01-15T17:10:00;19.47;;;12.00;;
5904;SDS011;2978;42.012;24.880;2023-01-15T17:12:36;12.03;;;8.10;;
5904;SDS011;2978;42.012;24.880;2023-01-15T17:17:38;13.70;;;8.50;;
5904;SDS011;2978;42.012;24.880;2023-01-15T17:20:05;18.63;;;10.53;;
5904;SDS011;2978;42.012;24.880;2023-01-15T17:22:32;13.53;;;7.63;;
5904;SDS011;2978;42.012;24.880;2023-01-15T17:24:58;10.60;;;8.13;;
5904;SDS011;2978;42.012;24.880;2023-01-15T17:27:25;11.70;;;8.23;;
5904;SDS011;2978;42.012;24.880;2023-01-15T17:29:51;13.97;;;10.60;;
5904;SDS011;2978;42.012;24.880;2023-01-15T17:32:38;17.63;;;12.60;;
5904;SDS011;2978;42.012;24.880;2023-01-15T17:35:15;19.47;;;11.77;;